Terminal Aerodrome Forecast
Issued by NWS Atlanta, GA

Home | Current Version | Previous Version | Text Only | Print | Product List | Glossary On
Versions: 1 2 3 4 5 6 7 8 9 10 11 12 13 14 15
000
FTUS42 KFFC 271142
TAFMCN
TAF
KMCN 271142Z 2712/2812 12005KT P6SM SCT120
     FM271600 15007KT P6SM BKN100
     FM272100 14005KT P6SM VCSH SCT050 BKN100 PROB30 2723/2804 5SM
      SHRA BKN045
     FM280400 11003KT P6SM BKN040
     FM280800 11003KT 4SM BR BKN020
     FM281100 15003KT 3SM BR BKN009=

USA.gov is the U.S. government's official web portal to all federal, state and local government web resources and services.